sensor_id;sensor_type;location;lat;lon;timestamp;pressure;altitude;pressure_sealevel;temperature;humidity
59391;BME280;53405;57.012;40.984;2023-09-19T00:00:57;100758.50;;;6.98;86.22
59391;BME280;53405;57.012;40.984;2023-09-19T00:03:25;100766.09;;;7.01;86.15
59391;BME280;53405;57.012;40.984;2023-09-19T00:05:53;100773.66;;;7.04;86.21
59391;BME280;53405;57.012;40.984;2023-09-19T00:08:20;100765.41;;;7.09;86.28
59391;BME280;53405;57.012;40.984;2023-09-19T00:10:53;100773.13;;;7.10;86.12
59391;BME280;53405;57.012;40.984;2023-09-19T00:13:22;100765.00;;;7.03;86.16
59391;BME280;53405;57.012;40.984;2023-09-19T00:15:51;100756.81;;;6.77;87.60
59391;BME280;53405;57.012;40.984;2023-09-19T00:18:19;100770.22;;;7.03;86.69
59391;BME280;53405;57.012;40.984;2023-09-19T00:20:51;100770.91;;;7.05;86.24
59391;BME280;53405;57.012;40.984;2023-09-19T00:23:19;100769.78;;;6.98;86.46
59391;BME280;53405;57.012;40.984;2023-09-19T00:25:48;100771.31;;;6.91;86.85
59391;BME280;53405;57.012;40.984;2023-09-19T00:28:17;100771.03;;;6.94;86.94
59391;BME280;53405;57.012;40.984;2023-09-19T00:30:46;100770.06;;;6.95;87.10
59391;BME280;53405;57.012;40.984;2023-09-19T00:33:22;100767.16;;;6.98;87.07
59391;BME280;53405;57.012;40.984;2023-09-19T00:35:53;100768.84;;;6.99;86.69
59391;BME280;53405;57.012;40.984;2023-09-19T00:38:22;100772.28;;;7.00;86.59
59391;BME280;53405;57.012;40.984;2023-09-19T00:40:54;100773.66;;;6.94;86.83
59391;BME280;53405;57.012;40.984;2023-09-19T00:43:26;100775.59;;;6.92;86.58
59391;BME280;53405;57.012;40.984;2023-09-19T00:45:56;100779.03;;;6.93;86.54
59391;BME280;53405;57.012;40.984;2023-09-19T00:48:24;100787.84;;;6.92;86.65
59391;BME280;53405;57.012;40.984;2023-09-19T00:50:57;100782.88;;;6.88;86.65
59391;BME280;53405;57.012;40.984;2023-09-19T00:53:27;100781.38;;;6.86;86.67
59391;BME280;53405;57.012;40.984;2023-09-19T00:55:55;100780.22;;;6.79;86.66
59391;BME280;53405;57.012;40.984;2023-09-19T00:58:23;100781.56;;;6.73;86.79
59391;BME280;53405;57.012;40.984;2023-09-19T01:00:52;100785.44;;;6.69;87.03
59391;BME280;53405;57.012;40.984;2023-09-19T01:03:21;100786.41;;;6.68;87.25
59391;BME280;53405;57.012;40.984;2023-09-19T01:05:50;100787.25;;;6.68;87.28
59391;BME280;53405;57.012;40.984;2023-09-19T01:08:19;100792.19;;;6.72;87.13
59391;BME280;53405;57.012;40.984;2023-09-19T01:10:52;100791.38;;;6.71;86.97
59391;BME280;53405;57.012;40.984;2023-09-19T01:16:43;100796.88;;;6.68;87.28
59391;BME280;53405;57.012;40.984;2023-09-19T01:19:32;100797.28;;;6.73;86.62
59391;BME280;53405;57.012;40.984;2023-09-19T01:25:20;100797.28;;;6.73;86.66
59391;BME280;53405;57.012;40.984;2023-09-19T01:30:43;100798.78;;;6.66;87.03
59391;BME280;53405;57.012;40.984;2023-09-19T01:33:11;100794.25;;;6.68;86.62
59391;BME280;53405;57.012;40.984;2023-09-19T01:35:39;100798.78;;;6.66;86.86
59391;BME280;53405;57.012;40.984;2023-09-19T01:38:07;100748.13;;;6.36;86.66
59391;BME280;53405;57.012;40.984;2023-09-19T01:40:41;100795.44;;;6.54;87.06
59391;BME280;53405;57.012;40.984;2023-09-19T01:49:09;100797.88;;;6.46;87.15
59391;BME280;53405;57.012;40.984;2023-09-19T01:52:04;100798.56;;;6.48;87.08
59391;BME280;53405;57.012;40.984;2023-09-19T01:54:41;100796.63;;;6.40;87.04
59391;BME280;53405;57.012;40.984;2023-09-19T01:57:22;100802.25;;;6.36;87.44
59391;BME280;53405;57.012;40.984;2023-09-19T02:00:07;100795.88;;;6.28;87.76
59391;BME280;53405;57.012;40.984;2023-09-19T02:02:45;100792.75;;;6.35;87.23
59391;BME280;53405;57.012;40.984;2023-09-19T02:05:25;100787.91;;;6.30;87.20
59391;BME280;53405;57.012;40.984;2023-09-19T02:07:54;100791.94;;;6.34;87.35
59391;BME280;53405;57.012;40.984;2023-09-19T02:10:23;100800.34;;;6.38;87.43
59391;BME280;53405;57.012;40.984;2023-09-19T02:12:51;100801.16;;;6.38;87.16
59391;BME280;53405;57.012;40.984;2023-09-19T02:15:19;100813.28;;;6.39;87.21
59391;BME280;53405;57.012;40.984;2023-09-19T02:17:47;100802.25;;;6.36;87.04
59391;BME280;53405;57.012;40.984;2023-09-19T02:20:15;100817.69;;;6.39;86.74
59391;BME280;53405;57.012;40.984;2023-09-19T02:22:44;100807.50;;;6.36;87.02
59391;BME280;53405;57.012;40.984;2023-09-19T02:25:31;100804.41;;;6.30;86.97
59391;BME280;53405;57.012;40.984;2023-09-19T02:28:00;100802.19;;;6.26;86.98
59391;BME280;53405;57.012;40.984;2023-09-19T02:30:30;100824.28;;;6.33;87.14
59391;BME280;53405;57.012;40.984;2023-09-19T02:32:58;100815.84;;;6.29;86.94
59391;BME280;53405;57.012;40.984;2023-09-19T02:35:28;100810.75;;;6.28;87.20
59391;BME280;53405;57.012;40.984;2023-09-19T02:38:01;100772.63;;;6.04;86.95
59391;BME280;53405;57.012;40.984;2023-09-19T02:40:30;100803.44;;;6.22;87.01
59391;BME280;53405;57.012;40.984;2023-09-19T02:42:59;100812.34;;;6.19;87.45
59391;BME280;53405;57.012;40.984;2023-09-19T02:45:27;100813.63;;;6.25;87.26
59391;BME280;53405;57.012;40.984;2023-09-19T02:47:56;100813.50;;;6.26;87.26
59391;BME280;53405;57.012;40.984;2023-09-19T02:50:24;100813.13;;;6.31;87.29
59391;BME280;53405;57.012;40.984;2023-09-19T02:52:52;100813.66;;;6.35;87.57
59391;BME280;53405;57.012;40.984;2023-09-19T02:55:20;100771.91;;;6.23;87.38
59391;BME280;53405;57.012;40.984;2023-09-19T02:57:51;100801.59;;;6.43;87.05
59391;BME280;53405;57.012;40.984;2023-09-19T03:00:20;100793.75;;;6.43;87.60
59391;BME280;53405;57.012;40.984;2023-09-19T03:02:50;100801.91;;;6.50;87.90
59391;BME280;53405;57.012;40.984;2023-09-19T03:05:20;100794.34;;;6.57;87.53
59391;BME280;53405;57.012;40.984;2023-09-19T03:07:49;100796.56;;;6.61;87.03
59391;BME280;53405;57.012;40.984;2023-09-19T03:10:21;100794.66;;;6.63;86.96
59391;BME280;53405;57.012;40.984;2023-09-19T03:12:49;100800.72;;;6.64;86.99
59391;BME280;53405;57.012;40.984;2023-09-19T03:15:18;100803.09;;;6.67;87.11
59391;BME280;53405;57.012;40.984;2023-09-19T03:17:48;100801.53;;;6.64;87.39
59391;BME280;53405;57.012;40.984;2023-09-19T03:20:20;100765.41;;;6.48;87.31
59391;BME280;53405;57.012;40.984;2023-09-19T03:22:50;100802.81;;;6.70;87.37
59391;BME280;53405;57.012;40.984;2023-09-19T03:25:18;100796.03;;;6.67;87.46
59391;BME280;53405;57.012;40.984;2023-09-19T03:27:49;100790.28;;;6.74;87.65
59391;BME280;53405;57.012;40.984;2023-09-19T03:30:18;100786.41;;;6.78;87.54
59391;BME280;53405;57.012;40.984;2023-09-19T03:32:47;100782.84;;;6.79;87.39
59391;BME280;53405;57.012;40.984;2023-09-19T03:35:18;100789.09;;;6.87;86.97
59391;BME280;53405;57.012;40.984;2023-09-19T03:37:47;100783.84;;;6.87;86.92
59391;BME280;53405;57.012;40.984;2023-09-19T03:40:17;100790.88;;;6.97;86.86
59391;BME280;53405;57.012;40.984;2023-09-19T03:42:48;100793.94;;;7.02;86.86
59391;BME280;53405;57.012;40.984;2023-09-19T03:45:16;100759.03;;;6.82;86.41
59391;BME280;53405;57.012;40.984;2023-09-19T03:47:51;100790.78;;;7.08;86.69
59391;BME280;53405;57.012;40.984;2023-09-19T03:50:21;100800.28;;;7.19;86.47
59391;BME280;53405;57.012;40.984;2023-09-19T03:52:50;100780.84;;;7.21;86.44
59391;BME280;53405;57.012;40.984;2023-09-19T03:55:18;100722.25;;;6.93;85.92
59391;BME280;53405;57.012;40.984;2023-09-19T03:57:48;100775.47;;;7.33;85.79
59391;BME280;53405;57.012;40.984;2023-09-19T04:00:16;100784.03;;;7.54;85.56
59391;BME280;53405;57.012;40.984;2023-09-19T04:02:48;100784.31;;;7.61;84.93
59391;BME280;53405;57.012;40.984;2023-09-19T04:05:16;100789.66;;;7.69;83.82
59391;BME280;53405;57.012;40.984;2023-09-19T04:07:45;100796.31;;;7.73;83.93
59391;BME280;53405;57.012;40.984;2023-09-19T04:10:13;100787.34;;;7.76;84.52
59391;BME280;53405;57.012;40.984;2023-09-19T04:12:54;100797.28;;;7.82;83.99
59391;BME280;53405;57.012;40.984;2023-09-19T04:15:23;100784.28;;;7.90;83.71
59391;BME280;53405;57.012;40.984;2023-09-19T04:17:54;100777.50;;;7.88;83.93
59391;BME280;53405;57.012;40.984;2023-09-19T04:20:22;100748.25;;;7.83;83.32
59391;BME280;53405;57.012;40.984;2023-09-19T04:22:51;100786.97;;;8.08;83.29
59391;BME280;53405;57.012;40.984;2023-09-19T04:25:19;100781.16;;;8.14;83.44
59391;BME280;53405;57.012;40.984;2023-09-19T04:27:47;100788.63;;;8.19;82.98
59391;BME280;53405;57.012;40.984;2023-09-19T04:30:15;100775.88;;;8.24;83.11
59391;BME280;53405;57.012;40.984;2023-09-19T04:32:43;100779.06;;;8.28;83.01
59391;BME280;53405;57.012;40.984;2023-09-19T04:35:11;100777.94;;;8.30;83.02
59391;BME280;53405;57.012;40.984;2023-09-19T04:37:39;100775.00;;;8.43;83.27
59391;BME280;53405;57.012;40.984;2023-09-19T04:40:09;100755.78;;;8.43;83.06
59391;BME280;53405;57.012;40.984;2023-09-19T04:42:40;100772.91;;;8.57;83.18
59391;BME280;53405;57.012;40.984;2023-09-19T04:45:09;100765.25;;;8.63;83.12
59391;BME280;53405;57.012;40.984;2023-09-19T04:47:38;100766.88;;;8.74;83.07
59391;BME280;53405;57.012;40.984;2023-09-19T04:50:09;100768.38;;;8.77;83.45
59391;BME280;53405;57.012;40.984;2023-09-19T04:52:41;100770.94;;;8.86;83.52
59391;BME280;53405;57.012;40.984;2023-09-19T04:55:13;100771.84;;;8.95;83.68
59391;BME280;53405;57.012;40.984;2023-09-19T04:57:54;100741.91;;;8.88;82.88
59391;BME280;53405;57.012;40.984;2023-09-19T05:00:23;100772.25;;;9.18;83.74
59391;BME280;53405;57.012;40.984;2023-09-19T05:02:57;100778.94;;;9.31;82.61
59391;BME280;53405;57.012;40.984;2023-09-19T05:05:25;100765.72;;;9.40;82.42
59391;BME280;53405;57.012;40.984;2023-09-19T05:07:53;100767.78;;;9.55;83.41
59391;BME280;53405;57.012;40.984;2023-09-19T05:10:21;100774.81;;;9.72;82.24
59391;BME280;53405;57.012;40.984;2023-09-19T05:12:52;100770.94;;;9.76;81.78
59391;BME280;53405;57.012;40.984;2023-09-19T05:15:20;100781.03;;;9.89;81.34
59391;BME280;53405;57.012;40.984;2023-09-19T05:17:49;100770.16;;;9.84;81.11
59391;BME280;53405;57.012;40.984;2023-09-19T05:20:19;100775.47;;;9.92;79.47
59391;BME280;53405;57.012;40.984;2023-09-19T05:23:01;100776.13;;;9.94;79.51
59391;BME280;53405;57.012;40.984;2023-09-19T05:25:31;100772.22;;;9.99;80.62
59391;BME280;53405;57.012;40.984;2023-09-19T05:27:59;100769.25;;;9.93;81.58
59391;BME280;53405;57.012;40.984;2023-09-19T05:30:27;100781.34;;;10.12;80.47
59391;BME280;53405;57.012;40.984;2023-09-19T05:32:56;100780.91;;;10.17;78.81
59391;BME280;53405;57.012;40.984;2023-09-19T05:35:25;100791.28;;;10.19;78.97
59391;BME280;53405;57.012;40.984;2023-09-19T05:37:54;100793.91;;;10.19;80.17
59391;BME280;53405;57.012;40.984;2023-09-19T05:40:22;100758.66;;;10.11;77.92
59391;BME280;53405;57.012;40.984;2023-09-19T05:42:50;100788.59;;;10.37;75.69
59391;BME280;53405;57.012;40.984;2023-09-19T05:45:18;100800.34;;;10.51;75.88
59391;BME280;53405;57.012;40.984;2023-09-19T05:47:53;100792.47;;;10.59;74.83
59391;BME280;53405;57.012;40.984;2023-09-19T05:50:28;100796.63;;;10.70;73.64
59391;BME280;53405;57.012;40.984;2023-09-19T05:52:56;100802.88;;;10.69;72.81
59391;BME280;53405;57.012;40.984;2023-09-19T05:55:24;100799.59;;;10.75;73.31
59391;BME280;53405;57.012;40.984;2023-09-19T05:57:52;100764.78;;;10.55;72.17
59391;BME280;53405;57.012;40.984;2023-09-19T06:00:22;100795.69;;;10.87;72.02
59391;BME280;53405;57.012;40.984;2023-09-19T06:02:52;100757.63;;;10.73;71.23
59391;BME280;53405;57.012;40.984;2023-09-19T06:05:20;100795.06;;;10.93;71.07
59391;BME280;53405;57.012;40.984;2023-09-19T06:07:48;100797.22;;;10.98;71.69
59391;BME280;53405;57.012;40.984;2023-09-19T06:10:18;100756.31;;;10.77;73.66
59391;BME280;53405;57.012;40.984;2023-09-19T06:12:48;100778.44;;;11.01;72.59
59391;BME280;53405;57.012;40.984;2023-09-19T06:15:16;100745.31;;;10.82;71.13
59391;BME280;53405;57.012;40.984;2023-09-19T06:17:50;100791.63;;;11.09;71.66
59391;BME280;53405;57.012;40.984;2023-09-19T06:20:19;100796.75;;;11.19;71.64
59391;BME280;53405;57.012;40.984;2023-09-19T06:22:47;100796.94;;;11.26;70.39
59391;BME280;53405;57.012;40.984;2023-09-19T06:25:16;100801.72;;;11.30;70.05
59391;BME280;53405;57.012;40.984;2023-09-19T06:27:49;100800.25;;;11.36;70.75
59391;BME280;53405;57.012;40.984;2023-09-19T06:30:21;100799.44;;;11.44;70.55
59391;BME280;53405;57.012;40.984;2023-09-19T06:32:58;100796.31;;;11.56;69.21
59391;BME280;53405;57.012;40.984;2023-09-19T06:35:28;100791.53;;;11.60;70.16
59391;BME280;53405;57.012;40.984;2023-09-19T06:37:56;100794.34;;;11.67;68.81
59391;BME280;53405;57.012;40.984;2023-09-19T06:40:25;100794.81;;;11.70;69.72
59391;BME280;53405;57.012;40.984;2023-09-19T06:42:53;100800.94;;;11.87;68.67
59391;BME280;53405;57.012;40.984;2023-09-19T06:45:21;100795.19;;;11.92;68.33
59391;BME280;53405;57.012;40.984;2023-09-19T06:47:51;100791.69;;;12.08;67.70
59391;BME280;53405;57.012;40.984;2023-09-19T06:50:21;100777.16;;;12.04;66.37
59391;BME280;53405;57.012;40.984;2023-09-19T06:52:54;100785.88;;;12.21;67.80
59391;BME280;53405;57.012;40.984;2023-09-19T06:55:23;100795.44;;;12.30;65.87
59391;BME280;53405;57.012;40.984;2023-09-19T06:57:55;100790.63;;;12.34;65.67
59391;BME280;53405;57.012;40.984;2023-09-19T07:00:23;100790.47;;;12.27;66.36
59391;BME280;53405;57.012;40.984;2023-09-19T07:03:05;100793.22;;;12.42;67.50
59391;BME280;53405;57.012;40.984;2023-09-19T07:05:37;100764.34;;;12.40;66.21
59391;BME280;53405;57.012;40.984;2023-09-19T07:08:07;100792.16;;;12.59;64.26
59391;BME280;53405;57.012;40.984;2023-09-19T07:10:36;100795.97;;;12.65;63.81
59391;BME280;53405;57.012;40.984;2023-09-19T07:13:07;100796.72;;;12.74;64.92
59391;BME280;53405;57.012;40.984;2023-09-19T07:15:39;100791.28;;;12.75;64.24
59391;BME280;53405;57.012;40.984;2023-09-19T07:18:09;100785.31;;;12.81;64.25
59391;BME280;53405;57.012;40.984;2023-09-19T07:20:38;100776.97;;;12.93;64.74
59391;BME280;53405;57.012;40.984;2023-09-19T07:23:05;100788.81;;;13.05;63.84
59391;BME280;53405;57.012;40.984;2023-09-19T07:25:35;100788.44;;;13.16;64.10
59391;BME280;53405;57.012;40.984;2023-09-19T07:28:03;100782.38;;;13.31;61.98
59391;BME280;53405;57.012;40.984;2023-09-19T07:30:31;100766.59;;;13.14;62.88
59391;BME280;53405;57.012;40.984;2023-09-19T07:32:58;100781.91;;;13.50;61.29
59391;BME280;53405;57.012;40.984;2023-09-19T07:35:26;100776.53;;;13.59;59.59
59391;BME280;53405;57.012;40.984;2023-09-19T07:37:54;100768.50;;;13.52;59.69
59391;BME280;53405;57.012;40.984;2023-09-19T07:40:23;100780.41;;;13.71;58.96
59391;BME280;53405;57.012;40.984;2023-09-19T07:42:51;100777.06;;;13.92;60.35
59391;BME280;53405;57.012;40.984;2023-09-19T07:45:19;100777.63;;;14.02;56.80
59391;BME280;53405;57.012;40.984;2023-09-19T07:47:49;100775.66;;;14.19;56.34
59391;BME280;53405;57.012;40.984;2023-09-19T07:50:18;100774.25;;;14.23;56.73
59391;BME280;53405;57.012;40.984;2023-09-19T07:52:50;100768.88;;;14.17;56.93
59391;BME280;53405;57.012;40.984;2023-09-19T07:55:20;100754.63;;;14.03;58.13
59391;BME280;53405;57.012;40.984;2023-09-19T07:57:52;100761.22;;;14.37;56.07
59391;BME280;53405;57.012;40.984;2023-09-19T08:00:21;100761.84;;;14.39;55.82
59391;BME280;53405;57.012;40.984;2023-09-19T08:02:48;100760.81;;;14.55;55.16
59391;BME280;53405;57.012;40.984;2023-09-19T08:05:16;100742.66;;;14.67;54.84
59391;BME280;53405;57.012;40.984;2023-09-19T08:07:45;100744.66;;;15.01;54.44
59391;BME280;53405;57.012;40.984;2023-09-19T08:10:16;100746.75;;;15.34;53.17
59391;BME280;53405;57.012;40.984;2023-09-19T08:12:47;100743.59;;;15.95;51.81
59391;BME280;53405;57.012;40.984;2023-09-19T08:15:17;100740.88;;;16.23;49.89
59391;BME280;53405;57.012;40.984;2023-09-19T08:17:48;100731.34;;;16.36;49.29
59391;BME280;53405;57.012;40.984;2023-09-19T08:20:15;100725.41;;;16.34;50.00
59391;BME280;53405;57.012;40.984;2023-09-19T08:25:16;100725.41;;;17.02;49.00
59391;BME280;53405;57.012;40.984;2023-09-19T08:27:46;100733.44;;;17.56;47.34
59391;BME280;53405;57.012;40.984;2023-09-19T08:30:21;100740.81;;;17.54;46.49
59391;BME280;53405;57.012;40.984;2023-09-19T08:32:51;100733.03;;;17.52;46.75
59391;BME280;53405;57.012;40.984;2023-09-19T08:35:20;100724.16;;;17.78;45.81
59391;BME280;53405;57.012;40.984;2023-09-19T08:37:48;100719.94;;;17.44;46.56
59391;BME280;53405;57.012;40.984;2023-09-19T08:40:17;100713.75;;;17.70;46.45
59391;BME280;53405;57.012;40.984;2023-09-19T08:42:55;100714.59;;;17.57;47.36
59391;BME280;53405;57.012;40.984;2023-09-19T08:45:24;100706.59;;;17.57;45.85
59391;BME280;53405;57.012;40.984;2023-09-19T08:48:17;100707.44;;;17.44;46.09
59391;BME280;53405;57.012;40.984;2023-09-19T08:50:49;100706.16;;;16.87;47.23
59391;BME280;53405;57.012;40.984;2023-09-19T08:53:27;100707.44;;;16.42;47.99
59391;BME280;53405;57.012;40.984;2023-09-19T08:56:00;100704.41;;;16.04;49.75
59391;BME280;53405;57.012;40.984;2023-09-19T08:58:33;100705.00;;;15.71;50.06
59391;BME280;53405;57.012;40.984;2023-09-19T09:01:03;100695.00;;;15.45;52.41
59391;BME280;53405;57.012;40.984;2023-09-19T09:03:35;100695.38;;;15.42;50.86
59391;BME280;53405;57.012;40.984;2023-09-19T09:06:03;100686.19;;;15.38;52.20
59391;BME280;53405;57.012;40.984;2023-09-19T09:08:31;100682.09;;;15.13;53.11
59391;BME280;53405;57.012;40.984;2023-09-19T09:10:59;100685.31;;;15.30;51.70
59391;BME280;53405;57.012;40.984;2023-09-19T09:13:26;100679.47;;;15.42;51.94
59391;BME280;53405;57.012;40.984;2023-09-19T09:15:55;100685.44;;;15.44;51.84
59391;BME280;53405;57.012;40.984;2023-09-19T09:18:25;100692.53;;;15.43;51.27
59391;BME280;53405;57.012;40.984;2023-09-19T09:20:55;100653.75;;;15.14;53.18
59391;BME280;53405;57.012;40.984;2023-09-19T09:23:23;100650.78;;;15.02;52.41
59391;BME280;53405;57.012;40.984;2023-09-19T09:25:53;100683.69;;;15.29;52.50
59391;BME280;53405;57.012;40.984;2023-09-19T09:28:26;100675.72;;;15.29;50.94
59391;BME280;53405;57.012;40.984;2023-09-19T09:30:55;100672.94;;;15.38;50.83
59391;BME280;53405;57.012;40.984;2023-09-19T09:33:23;100679.19;;;15.58;50.82
59391;BME280;53405;57.012;40.984;2023-09-19T09:36:02;100670.19;;;15.59;50.95
59391;BME280;53405;57.012;40.984;2023-09-19T09:38:43;100677.97;;;15.61;50.69
59391;BME280;53405;57.012;40.984;2023-09-19T09:41:11;100677.50;;;15.50;52.35
59391;BME280;53405;57.012;40.984;2023-09-19T09:43:43;100649.44;;;15.34;50.29
59391;BME280;53405;57.012;40.984;2023-09-19T09:46:16;100668.94;;;15.48;52.06
59391;BME280;53405;57.012;40.984;2023-09-19T09:49:00;100662.72;;;15.69;51.66
59391;BME280;53405;57.012;40.984;2023-09-19T09:51:49;100656.47;;;15.77;50.60
59391;BME280;53405;57.012;40.984;2023-09-19T09:54:28;100645.97;;;15.69;52.14
59391;BME280;53405;57.012;40.984;2023-09-19T09:57:16;100656.91;;;15.87;50.84
59391;BME280;53405;57.012;40.984;2023-09-19T09:59:51;100652.84;;;15.85;50.76
59391;BME280;53405;57.012;40.984;2023-09-19T10:02:27;100647.91;;;15.82;51.06
59391;BME280;53405;57.012;40.984;2023-09-19T10:07:50;100646.66;;;15.78;51.69
59391;BME280;53405;57.012;40.984;2023-09-19T10:10:32;100624.47;;;15.64;51.63
59391;BME280;53405;57.012;40.984;2023-09-19T10:13:11;100642.81;;;15.87;51.01
59391;BME280;53405;57.012;40.984;2023-09-19T10:15:50;100635.44;;;15.82;51.37
59391;BME280;53405;57.012;40.984;2023-09-19T10:18:23;100632.72;;;15.76;50.93
59391;BME280;53405;57.012;40.984;2023-09-19T10:20:51;100623.59;;;15.78;52.01
59391;BME280;53405;57.012;40.984;2023-09-19T10:23:21;100626.31;;;15.92;51.05
59391;BME280;53405;57.012;40.984;2023-09-19T10:25:54;100622.63;;;15.93;51.02
59391;BME280;53405;57.012;40.984;2023-09-19T10:28:23;100625.72;;;15.96;51.88
59391;BME280;53405;57.012;40.984;2023-09-19T10:30:56;100612.44;;;16.03;51.19
59391;BME280;53405;57.012;40.984;2023-09-19T10:33:25;100602.22;;;16.00;50.98
59391;BME280;53405;57.012;40.984;2023-09-19T10:36:00;100609.22;;;16.14;51.46
59391;BME280;53405;57.012;40.984;2023-09-19T10:38:27;100605.38;;;16.23;51.14
59391;BME280;53405;57.012;40.984;2023-09-19T10:40:57;100605.81;;;16.40;50.89
59391;BME280;53405;57.012;40.984;2023-09-19T10:43:32;100594.00;;;16.56;49.12
59391;BME280;53405;57.012;40.984;2023-09-19T10:46:06;100591.34;;;16.70;50.17
59391;BME280;53405;57.012;40.984;2023-09-19T10:48:34;100603.13;;;17.61;47.10
59391;BME280;53405;57.012;40.984;2023-09-19T10:53:51;100588.41;;;20.17;41.47
59391;BME280;53405;57.012;40.984;2023-09-19T10:56:26;100584.22;;;20.51;39.81
59391;BME280;53405;57.012;40.984;2023-09-19T10:59:14;100584.28;;;20.87;39.98
59391;BME280;53405;57.012;40.984;2023-09-19T11:01:46;100582.50;;;21.52;37.96
59391;BME280;53405;57.012;40.984;2023-09-19T11:04:32;100565.78;;;20.97;39.83
59391;BME280;53405;57.012;40.984;2023-09-19T11:09:52;100586.50;;;21.49;37.99
59391;BME280;53405;57.012;40.984;2023-09-19T11:15:00;100577.16;;;21.28;39.16
59391;BME280;53405;57.012;40.984;2023-09-19T11:28:30;100563.78;;;23.23;34.12
59391;BME280;53405;57.012;40.984;2023-09-19T11:30:59;100552.00;;;22.73;35.25
59391;BME280;53405;57.012;40.984;2023-09-19T11:33:46;100558.44;;;22.38;36.23
59391;BME280;53405;57.012;40.984;2023-09-19T11:36:17;100545.91;;;22.15;36.90
59391;BME280;53405;57.012;40.984;2023-09-19T11:46:30;100538.19;;;20.97;36.57
59391;BME280;53405;57.012;40.984;2023-09-19T11:49:07;100539.59;;;20.33;39.26
59391;BME280;53405;57.012;40.984;2023-09-19T12:00:54;100491.97;;;19.21;42.68
59391;BME280;53405;57.012;40.984;2023-09-19T12:03:29;100521.25;;;19.27;42.28
59391;BME280;53405;57.012;40.984;2023-09-19T12:05:58;100530.41;;;18.94;42.52
59391;BME280;53405;57.012;40.984;2023-09-19T12:08:26;100496.28;;;18.53;44.17
59391;BME280;53405;57.012;40.984;2023-09-19T12:10:55;100518.13;;;18.43;45.67
59391;BME280;53405;57.012;40.984;2023-09-19T12:13:24;100520.50;;;18.51;45.49
59391;BME280;53405;57.012;40.984;2023-09-19T12:15:53;100511.50;;;18.46;44.79
59391;BME280;53405;57.012;40.984;2023-09-19T12:18:30;100510.06;;;18.50;43.52
59391;BME280;53405;57.012;40.984;2023-09-19T12:20:59;100501.78;;;18.33;45.17
59391;BME280;53405;57.012;40.984;2023-09-19T12:23:29;100511.50;;;18.46;45.09
59391;BME280;53405;57.012;40.984;2023-09-19T12:25:57;100506.03;;;18.40;44.77
59391;BME280;53405;57.012;40.984;2023-09-19T12:28:26;100503.72;;;18.19;46.18
59391;BME280;53405;57.012;40.984;2023-09-19T12:30:54;100492.25;;;18.18;46.43
59391;BME280;53405;57.012;40.984;2023-09-19T12:33:25;100492.94;;;18.07;46.61
59391;BME280;53405;57.012;40.984;2023-09-19T12:35:54;100493.63;;;17.89;47.30
59391;BME280;53405;57.012;40.984;2023-09-19T12:38:26;100473.56;;;17.86;47.25
59391;BME280;53405;57.012;40.984;2023-09-19T12:40:57;100475.72;;;18.03;47.52
59391;BME280;53405;57.012;40.984;2023-09-19T12:43:31;100472.00;;;18.11;46.87
59391;BME280;53405;57.012;40.984;2023-09-19T12:46:03;100462.97;;;18.12;47.33
59391;BME280;53405;57.012;40.984;2023-09-19T12:48:32;100472.28;;;18.28;45.25
59391;BME280;53405;57.012;40.984;2023-09-19T12:53:41;100456.44;;;18.33;45.09
59391;BME280;53405;57.012;40.984;2023-09-19T12:56:14;100462.78;;;18.38;45.46
59391;BME280;53405;57.012;40.984;2023-09-19T12:58:56;100460.97;;;18.32;45.58
59391;BME280;53405;57.012;40.984;2023-09-19T13:01:25;100455.94;;;18.17;46.89
59391;BME280;53405;57.012;40.984;2023-09-19T13:04:14;100458.88;;;18.09;45.75
59391;BME280;53405;57.012;40.984;2023-09-19T13:06:47;100453.78;;;18.08;47.00
59391;BME280;53405;57.012;40.984;2023-09-19T13:09:20;100459.47;;;18.11;47.59
59391;BME280;53405;57.012;40.984;2023-09-19T13:11:48;100453.13;;;18.12;47.69
59391;BME280;53405;57.012;40.984;2023-09-19T13:14:26;100448.00;;;18.11;47.26
59391;BME280;53405;57.012;40.984;2023-09-19T13:17:06;100457.78;;;17.85;48.26
59391;BME280;53405;57.012;40.984;2023-09-19T13:19:48;100450.59;;;17.85;48.24
59391;BME280;53405;57.012;40.984;2023-09-19T13:25:14;100436.06;;;17.81;48.25
59391;BME280;53405;57.012;40.984;2023-09-19T13:27:51;100448.97;;;17.84;48.58
59391;BME280;53405;57.012;40.984;2023-09-19T13:30:20;100456.63;;;17.74;49.05
59391;BME280;53405;57.012;40.984;2023-09-19T13:32:48;100432.91;;;17.66;50.30
59391;BME280;53405;57.012;40.984;2023-09-19T13:35:15;100442.53;;;17.67;50.40
59391;BME280;53405;57.012;40.984;2023-09-19T13:37:44;100432.44;;;17.76;49.71
59391;BME280;53405;57.012;40.984;2023-09-19T13:40:15;100425.00;;;17.84;48.90
59391;BME280;53405;57.012;40.984;2023-09-19T13:42:43;100424.63;;;17.81;48.34
59391;BME280;53405;57.012;40.984;2023-09-19T13:45:10;100425.09;;;17.71;50.39
59391;BME280;53405;57.012;40.984;2023-09-19T13:47:40;100437.34;;;17.72;49.77
59391;BME280;53405;57.012;40.984;2023-09-19T13:50:09;100417.53;;;17.68;51.09
59391;BME280;53405;57.012;40.984;2023-09-19T13:52:36;100424.56;;;17.56;51.97
59391;BME280;53405;57.012;40.984;2023-09-19T13:55:05;100423.28;;;17.65;49.63
59391;BME280;53405;57.012;40.984;2023-09-19T13:57:34;100406.56;;;17.51;51.32
59391;BME280;53405;57.012;40.984;2023-09-19T14:00:02;100424.59;;;17.49;52.36
59391;BME280;53405;57.012;40.984;2023-09-19T14:02:38;100420.34;;;17.41;53.49
59391;BME280;53405;57.012;40.984;2023-09-19T14:05:07;100386.44;;;17.23;52.81